This is the latest recevied weather packets stored in our database for station/object OK2ILA-14. If no packets are shown the sender has not sent any weather packets the latest 1 day(s).
| Time | Temp. | Humidity | Pressure | Rain* | Wind** | Luminosity | Snow |
|---|---|---|---|---|---|---|---|
| 1778030660 | 13.33° C | 66% | 1005.2 hPa | - | - | - | - |
| 1778030060 | 13.33° C | 65% | 1005.2 hPa | - | - | - | - |
| 1778029460 | 13.33° C | 65% | 1005.1 hPa | - | - | - | - |
| 1778028860 | 13.89° C | 63% | 1005.1 hPa | - | - | - | - |
| 1778028259 | 14.44° C | 63% | 1005.1 hPa | - | - | - | - |
| 1778027659 | 13.33° C | 64% | 1004.9 hPa | - | - | - | - |
| 1778027059 | 13.89° C | 63% | 1004.9 hPa | - | - | - | - |
| 1778026459 | 13.89° C | 61% | 1005.1 hPa | - | - | - | - |
| 1778025859 | 14.44° C | 60% | 1004.9 hPa | - | - | - | - |
| 1778025259 | 14.44° C | 59% | 1004.9 hPa | - | - | - | - |
| 1778024666 | 15° C | 59% | 1005.2 hPa | - | - | - | - |
| 1778022858 | 15° C | 57% | 1005.3 hPa | - | - | - | - |
| 1778021658 | 15.56° C | 55% | 1005.4 hPa | - | - | - | - |
| 1778018057 | 16.11° C | 50% | 1005.4 hPa | - | - | - | - |
| 1778016255 | 16.67° C | 48% | 1005.7 hPa | - | - | - | - |
| 1778015655 | 16.67° C | 47% | 1005.4 hPa | - | - | - | - |
| 1778011454 | 17.78° C | 46% | 1005.5 hPa | - | - | - | - |
| 1778008453 | 19.44° C | 41% | 1005.5 hPa | - | - | - | - |
| 1778007853 | 20° C | 41% | 1005.5 hPa | - | - | - | - |
| 1778004252 | 20.56° C | 40% | 1005.1 hPa | - | - | - | - |
| 1778000651 | 25° C | 32% | 1005 hPa | - | - | - | - |
| 1778000051 | 24.44° C | 32% | 1004.9 hPa | - | - | - | - |
| 1777998851 | 25.56° C | 28% | 1005.1 hPa | - | - | - | - |
| 1777997050 | 26.67° C | 20% | 1005.3 hPa | - | - | - | - |
| 1777996450 | 26.67° C | 19% | 1005.4 hPa | - | - | - | - |
* Rain since midnight (hover to see other rain measurements)
** Current wind speed in m/s (hover to see current wind gust speed)